Hoegh Berlin — C6XQ4 — position and weather

sailwx.info

Track history (hours):
 
Tides and Currents Weather Stations Pressure Air Temp Water Temp Dewpoint Dewpoint Depression Visibility Wind Speed Wind Dir Waves Ship Positions

Hoegh Berlin

Last reported at 2017-Mar-29 05:33 UTC. Time now 2017-Mar-29 13:22 UTC.
Position N 35°60' W 005°09'.

Length 228 m; draft 8.7 m.

Type: Cargo ship. MMSI: 311019100.

Date/timePositionNaut miles runAvg speedWind from/ knotsBaromVisibWave heightAir tempDewpointWater temp
2017-Mar-29 05:33N 35°60' W 005°09'1717.5
2017-Mar-29 04:33N 35°55' W 005°30'2 0.8
2017-Mar-29 02:17N 35°53' W 005°30'0 0.0
2017-Mar-28 20:29N 35°54' W 005°30'3 3.1
2017-Mar-28 19:33N 35°56' W 005°31'7 4.8
2017-Mar-28 18:10N 35°54' W 005°39'  
2017-Mar-25 16:09N 36°38' W 023°33'915.8
2017-Mar-25 15:33N 36°38' W 023°45'1615.8
2017-Mar-25 14:33N 36°39' W 024°04'1616.4
2017-Mar-25 13:33N 36°40' W 024°25'1716.6
2017-Mar-25 12:33N 36°40' W 024°46'1616.1
2017-Mar-25 11:33N 36°41' W 025°06'1616.4
2017-Mar-25 10:33N 36°42' W 025°26'1616.4
2017-Mar-25 09:33N 36°43' W 025°46'1616.5
2017-Mar-25 08:33N 36°45' W 026°07'1716.6
2017-Mar-25 07:34N 36°45' W 026°28'12316.6
2017-Mar-25 00:10N 36°51' W 029°00'1117.0
2017-Mar-24 23:30N 36°52' W 029°14'  
Track history (hours):
 
Tides and Currents Weather Stations Pressure Air Temp Water Temp Dewpoint Dewpoint Depression Visibility Wind Speed Wind Dir Waves Ship Positions

Hoegh Berlin

Last reported at 2017-Mar-29 05:33 UTC. Time now 2017-Mar-29 13:22 UTC.
Position N 35°60' W 005°09'.

Length 228 m; draft 8.7 m.

Type: Cargo ship. MMSI: 311019100.

Date/timePositionNaut miles runAvg speedWind from/ knotsBaromVisibWave heightAir tempDewpointWater temp
2017-Mar-29 05:33N 35°60' W 005°09'1717.5
2017-Mar-29 04:33N 35°55' W 005°30'2 0.8
2017-Mar-29 02:17N 35°53' W 005°30'0 0.0
2017-Mar-28 20:29N 35°54' W 005°30'3 3.1
2017-Mar-28 19:33N 35°56' W 005°31'7 4.8
2017-Mar-28 18:10N 35°54' W 005°39'  
2017-Mar-25 16:09N 36°38' W 023°33'915.8
2017-Mar-25 15:33N 36°38' W 023°45'1615.8
2017-Mar-25 14:33N 36°39' W 024°04'1616.4
2017-Mar-25 13:33N 36°40' W 024°25'1716.6
2017-Mar-25 12:33N 36°40' W 024°46'1616.1
2017-Mar-25 11:33N 36°41' W 025°06'1616.4
2017-Mar-25 10:33N 36°42' W 025°26'1616.4
2017-Mar-25 09:33N 36°43' W 025°46'1616.5
2017-Mar-25 08:33N 36°45' W 026°07'1716.6
2017-Mar-25 07:34N 36°45' W 026°28'12316.6
2017-Mar-25 00:10N 36°51' W 029°00'1117.0
2017-Mar-24 23:30N 36°52' W 029°14'  

Dump ship's entire track history